Time;durP1;ratioP1;P1;durP2;ratioP2;P2;SDS_P1;SDS_P2;PMS_P1;PMS_P2;Temp;Humidity;BMP_temperature;BMP_pressure;BME280_temperature;BME280_humidity;BME280_pressure;Samples;Min_cycle;Max_cycle;Signal;HPM_P1;HPM_P2
2023/02/15 10:24:13;;;;;;;31.90;29.20;;;10.70;94.30;;;;;;5418554;21;24220968;-91
2023/02/15 10:27:07;;;;;;;32.30;29.07;;;14.80;76.90;;;;;;6247432;22;20209;-92
2023/02/15 10:33:02;;;;;;;35.13;31.87;;;16.30;73.30;;;;;;6225213;23;20857;-90
2023/02/15 10:35:42;;;;;;;34.30;30.80;;;16.20;72.20;;;;;;6225283;23;20435;-92
2023/02/15 10:38:26;;;;;;;32.03;28.83;;;17.40;71.60;;;;;;6222284;23;20412;-91
2023/02/15 10:41:05;;;;;;;30.93;28.00;;;16.90;67.70;;;;;;6223301;23;20938;-91
2023/02/15 10:44:09;;;;;;;30.23;27.63;;;16.40;69.90;;;;;;6222307;23;20500;-91
2023/02/15 10:47:10;;;;;;;33.03;29.63;;;16.50;70.30;;;;;;6221748;23;20411;-90
2023/02/15 10:50:24;;;;;;;;;;;;;;;;;;;;;
2023/02/15 10:53:10;;;;;;;33.50;30.80;;;16.70;70.00;;;;;;6071165;23;20472;-87
2023/02/15 10:59:32;;;;;;;31.00;28.50;;;19.70;61.80;;;;;;6164494;23;20420;-89
2023/02/15 11:02:28;;;;;;;34.20;30.80;;;19.80;59.30;;;;;;6090768;23;20423;-89
2023/02/15 11:05:09;;;;;;;31.70;29.03;;;19.10;60.90;;;;;;6211725;23;20804;-89
2023/02/15 11:07:40;;;;;;;32.50;29.70;;;19.20;60.20;;;;;;6219847;23;20432;-88
2023/02/15 11:10:23;;;;;;;31.20;28.53;;;19.30;60.50;;;;;;6220009;23;20411;-89
2023/02/15 11:12:50;;;;;;;33.83;30.30;;;19.30;60.60;;;;;;6220255;23;20464;-86
2023/02/15 11:15:22;;;;;;;33.33;30.20;;;20.50;58.80;;;;;;6220368;23;20412;-85
2023/02/15 11:17:56;;;;;;;34.13;31.27;;;20.80;58.50;;;;;;6219726;23;20930;-86
2023/02/15 11:20:29;;;;;;;33.20;30.23;;;21.60;57.20;;;;;;6220662;23;20388;-88
2023/02/15 11:22:56;;;;;;;32.80;29.87;;;21.00;56.20;;;;;;6217207;23;20401;-87
2023/02/15 11:25:28;;;;;;;33.00;30.17;;;20.80;57.00;;;;;;6244026;22;20525;-87
2023/02/15 11:27:56;;;;;;;34.27;31.40;;;19.80;57.90;;;;;;6245376;23;20848;-87
2023/02/15 11:30:25;;;;;;;33.73;30.77;;;19.60;59.50;;;;;;6244628;23;20407;-87
2023/02/15 11:32:55;;;;;;;32.50;29.60;;;19.90;58.40;;;;;;6243705;23;20440;-87
2023/02/15 11:35:29;;;;;;;32.47;29.70;;;19.60;58.80;;;;;;6244315;23;20790;-85
2023/02/15 11:38:01;;;;;;;32.47;29.80;;;20.00;59.30;;;;;;6244261;23;20439;-86
2023/02/15 11:40:31;;;;;;;32.37;29.87;;;20.20;58.60;;;;;;6244476;23;20462;-85
2023/02/15 11:43:03;;;;;;;30.90;28.27;;;19.80;58.70;;;;;;6244091;23;20408;-87
2023/02/15 11:45:32;;;;;;;30.83;28.30;;;20.20;58.70;;;;;;6243850;23;20400;-85
2023/02/15 11:48:00;;;;;;;31.73;29.13;;;20.40;57.70;;;;;;6244324;22;20409;-84
2023/02/15 11:50:31;;;;;;;31.57;28.97;;;19.70;58.50;;;;;;6243738;23;20405;-84
2023/02/15 11:53:01;;;;;;;32.67;29.93;;;20.00;59.50;;;;;;6244187;23;20428;-84
2023/02/15 11:55:29;;;;;;;31.30;28.73;;;19.80;58.50;;;;;;6243885;22;20408;-83
2023/02/15 11:58:00;;;;;;;32.03;29.30;;;19.00;60.00;;;;;;6243658;23;20408;-84
2023/02/15 12:00:35;;;;;;;29.73;27.40;;;18.60;61.10;;;;;;6243760;23;20848;-83
2023/02/15 12:03:08;;;;;;;29.80;27.10;;;19.20;61.50;;;;;;6243245;23;20392;-83
2023/02/15 12:05:37;;;;;;;30.43;28.00;;;19.10;60.00;;;;;;6244192;23;20687;-83
2023/02/15 12:08:13;;;;;;;31.03;28.40;;;19.10;60.50;;;;;;6243384;22;20436;-83
2023/02/15 12:10:47;;;;;;;32.07;29.57;;;19.90;60.20;;;;;;6243929;23;20392;-82
2023/02/15 12:13:16;;;;;;;30.23;27.97;;;20.50;59.10;;;;;;6244074;23;20423;-84
2023/02/15 12:15:48;;;;;;;31.00;28.30;;;21.00;57.50;;;;;;6243706;23;20412;-83
2023/02/15 12:18:34;;;;;;;29.27;26.87;;;21.00;57.20;;;;;;6243758;23;20439;-84
2023/02/15 12:21:06;;;;;;;31.57;29.37;;;21.10;56.90;;;;;;6243469;23;20903;-83
2023/02/15 12:23:33;;;;;;;28.93;26.53;;;21.90;55.80;;;;;;6242578;23;20494;-84
2023/02/15 12:26:00;;;;;;;30.40;28.00;;;22.30;54.80;;;;;;6243034;23;20393;-83
2023/02/15 12:28:33;;;;;;;28.50;26.40;;;21.40;55.10;;;;;;6243739;23;20408;-84
2023/02/15 12:31:02;;;;;;;30.33;27.73;;;21.20;56.20;;;;;;6244075;23;20388;-82
2023/02/15 12:33:33;;;;;;;29.83;27.73;;;21.50;55.60;;;;;;6243492;23;20454;-84
2023/02/15 12:36:09;;;;;;;31.37;28.27;;;20.90;56.10;;;;;;6243192;23;20483;-83
2023/02/15 12:38:36;;;;;;;29.33;27.13;;;20.90;56.80;;;;;;6243810;22;20776;-82
2023/02/15 12:41:06;;;;;;;29.03;26.73;;;21.10;56.60;;;;;;6242947;23;20740;-83
2023/02/15 12:43:34;;;;;;;30.40;27.90;;;21.00;56.10;;;;;;6242933;23;20406;-83
2023/02/15 12:46:21;;;;;;;31.70;29.07;;;21.30;55.60;;;;;;6243349;23;20503;-82
2023/02/15 12:49:05;;;;;;;30.63;28.30;;;21.20;56.40;;;;;;6242931;23;20419;-83
2023/02/15 12:51:44;;;;;;;29.90;27.80;;;20.90;55.40;;;;;;6242896;23;20384;-82
2023/02/15 12:54:18;;;;;;;31.53;28.93;;;20.20;56.10;;;;;;6243313;23;20696;-82
2023/02/15 12:56:45;;;;;;;29.07;26.70;;;20.00;56.50;;;;;;6243035;22;20431;-81
2023/02/15 12:59:15;;;;;;;28.80;26.30;;;19.50;57.40;;;;;;6243016;23;20404;-81
2023/02/15 13:01:44;;;;;;;27.30;25.20;;;18.70;58.60;;;;;;6243533;22;20401;-82
2023/02/15 13:04:20;;;;;;;29.13;26.73;;;18.90;59.90;;;;;;6243400;23;20466;-81
2023/02/15 13:06:51;;;;;;;30.07;27.60;;;18.30;59.60;;;;;;6242297;22;20946;-81
2023/02/15 13:09:21;;;;;;;28.07;25.80;;;17.80;62.00;;;;;;6242256;23;20393;-81
2023/02/15 13:11:48;;;;;;;28.33;26.23;;;18.50;61.30;;;;;;6242158;23;20501;-82
2023/02/15 13:14:20;;;;;;;28.43;26.03;;;18.50;59.90;;;;;;6242793;22;20737;-81
2023/02/15 13:16:48;;;;;;;26.87;24.93;;;18.40;61.00;;;;;;6241927;23;20413;-82
2023/02/15 13:19:17;;;;;;;29.97;27.60;;;18.70;60.90;;;;;;6242644;22;20419;-82
2023/02/15 13:21:47;;;;;;;29.73;27.10;;;18.50;60.70;;;;;;6242614;23;20409;-81
2023/02/15 13:24:21;;;;;;;33.50;30.50;;;18.40;61.10;;;;;;6242699;22;20530;-82
2023/02/15 13:26:48;;;;;;;29.43;26.93;;;18.20;62.40;;;;;;6242219;23;20906;-82
2023/02/15 13:29:22;;;;;;;30.23;27.67;;;18.30;63.30;;;;;;6242569;23;20408;-81
2023/02/15 13:31:50;;;;;;;29.40;26.90;;;18.30;61.90;;;;;;6242348;23;20727;-82
2023/02/15 13:34:23;;;;;;;30.50;28.13;;;17.20;64.90;;;;;;6242477;22;20415;-81
2023/02/15 13:36:55;;;;;;;29.03;26.83;;;16.10;67.40;;;;;;6242233;23;20422;-80
2023/02/15 13:39:31;;;;;;;32.20;28.93;;;14.60;73.10;;;;;;6242388;22;20420;-82
2023/02/15 13:42:04;;;;;;;33.17;29.83;;;13.50;80.60;;;;;;6242769;23;20383;-81
2023/02/15 13:45:00;;;;;;;30.83;28.03;;;12.80;87.00;;;;;;6242653;22;20428;-81
2023/02/15 13:47:38;;;;;;;32.73;29.83;;;12.10;91.40;;;;;;6241983;22;20412;-80
2023/02/15 13:50:19;;;;;;;32.57;29.17;;;11.70;93.70;;;;;;6242300;22;20899;-81
2023/02/15 13:52:52;;;;;;;33.37;30.33;;;11.30;95.50;;;;;;6241992;23;20424;-80
2023/02/15 13:55:33;;;;;;;32.93;30.20;;;11.10;97.50;;;;;;6241994;22;20452;-81
2023/02/15 13:58:25;;;;;;;34.17;30.90;;;11.00;98.90;;;;;;6242308;23;20393;-80
2023/02/15 14:01:03;;;;;;;33.30;30.20;;;10.90;99.30;;;;;;6241873;23;20439;-82
2023/02/15 14:03:56;;;;;;;33.00;29.60;;;10.80;99.90;;;;;;6243337;23;20415;-80
2023/02/15 14:07:10;;;;;;;34.07;30.77;;;10.90;99.90;;;;;;6239435;22;20439;-80
2023/02/15 14:09:49;;;;;;;33.43;30.33;;;10.90;99.90;;;;;;6189616;23;20452;-80
2023/02/15 14:12:37;;;;;;;34.07;30.60;;;10.90;99.90;;;;;;6242268;23;20468;-80
2023/02/15 14:15:14;;;;;;;31.90;28.30;;;10.90;99.90;;;;;;6242342;23;20393;-80
2023/02/15 14:17:52;;;;;;;33.67;30.20;;;10.90;99.90;;;;;;6242637;23;20713;-81
2023/02/15 14:20:22;;;;;;;30.83;27.83;;;10.90;99.90;;;;;;6242297;23;20392;-81
2023/02/15 14:22:58;;;;;;;33.50;29.93;;;10.90;99.90;;;;;;6241962;23;20400;-80
2023/02/15 14:25:29;;;;;;;32.70;29.70;;;10.90;99.90;;;;;;6241638;22;20965;-80
2023/02/15 14:28:07;;;;;;;32.57;29.53;;;11.00;99.90;;;;;;6242610;23;20404;-80
2023/02/15 14:30:37;;;;;;;35.10;31.67;;;10.90;99.90;;;;;;6242341;23;20388;-82
2023/02/15 14:33:08;;;;;;;33.27;30.23;;;11.00;99.90;;;;;;6242426;23;20444;-80
2023/02/15 14:35:36;;;;;;;32.97;29.50;;;11.00;99.90;;;;;;6241992;22;20947;-81
2023/02/15 14:38:10;;;;;;;34.60;31.30;;;11.00;99.90;;;;;;6242196;23;20725;-81
2023/02/15 14:41:04;;;;;;;33.90;30.70;;;11.00;99.90;;;;;;6241753;23;20911;-81
2023/02/15 14:43:50;;;;;;;33.13;30.00;;;11.00;99.90;;;;;;6242176;22;20385;-80
2023/02/15 14:46:25;;;;;;;34.47;31.23;;;11.00;99.90;;;;;;6242035;23;20416;-80
2023/02/15 14:48:55;;;;;;;33.23;29.47;;;10.90;99.90;;;;;;6242097;23;20392;-80
2023/02/15 14:51:59;;;;;;;34.83;31.37;;;10.90;99.90;;;;;;6241837;23;20415;-81
2023/02/15 14:54:56;;;;;;;31.87;28.67;;;10.90;99.90;;;;;;6242264;23;20404;-80
2023/02/15 14:57:25;;;;;;;32.47;29.30;;;10.90;99.90;;;;;;6241998;22;20435;-80
2023/02/15 14:59:57;;;;;;;33.13;29.90;;;11.00;99.90;;;;;;6243933;23;20426;-79
2023/02/15 15:02:26;;;;;;;34.77;31.67;;;10.90;99.90;;;;;;6243529;22;20412;-81
2023/02/15 15:05:00;;;;;;;33.27;30.10;;;10.90;99.90;;;;;;6244524;23;20409;-81
2023/02/15 15:07:29;;;;;;;35.20;31.90;;;10.90;99.90;;;;;;6244293;23;20447;-81
2023/02/15 15:10:03;;;;;;;32.00;29.00;;;10.90;99.90;;;;;;6243918;23;20503;-81
2023/02/15 15:12:40;;;;;;;31.50;28.60;;;10.90;99.90;;;;;;6243734;23;20768;-80
2023/02/15 15:15:13;;;;;;;33.77;30.67;;;10.80;99.90;;;;;;6243544;23;20412;-79
2023/02/15 15:18:00;;;;;;;32.10;29.27;;;10.80;99.90;;;;;;6243564;23;20392;-81
2023/02/15 15:20:45;;;;;;;33.87;29.73;;;10.80;99.90;;;;;;6244133;23;20397;-81
2023/02/15 15:23:39;;;;;;;32.60;29.63;;;10.80;99.90;;;;;;6243694;23;20389;-81
2023/02/15 15:26:22;;;;;;;32.80;29.50;;;10.80;99.90;;;;;;6243320;23;20742;-81
2023/02/15 15:28:57;;;;;;;32.03;29.03;;;10.70;99.90;;;;;;6243458;23;20388;-81
2023/02/15 15:31:35;;;;;;;31.17;28.37;;;10.70;99.90;;;;;;6243274;23;20974;-80
2023/02/15 15:34:46;;;;;;;33.33;30.03;;;10.60;99.90;;;;;;6243559;23;20428;-81
2023/02/15 15:37:47;;;;;;;33.13;29.70;;;10.60;99.90;;;;;;6245007;23;20388;-81
2023/02/15 15:40:42;;;;;;;31.53;28.50;;;10.50;99.90;;;;;;6243647;22;20455;-80
2023/02/15 15:43:49;;;;;;;33.17;29.67;;;10.40;99.90;;;;;;6243342;22;20384;-80
2023/02/15 15:46:44;;;;;;;30.37;27.40;;;10.40;99.90;;;;;;6243700;23;20403;-81
2023/02/15 15:49:15;;;;;;;32.00;28.90;;;10.40;99.90;;;;;;6243716;23;20396;-80
2023/02/15 15:51:44;;;;;;;31.70;28.83;;;10.40;99.90;;;;;;6243754;23;20389;-80
2023/02/15 15:54:20;;;;;;;32.30;29.57;;;10.30;99.90;;;;;;6242701;23;20497;-79
2023/02/15 15:56:53;;;;;;;31.00;27.87;;;10.20;99.90;;;;;;6243175;22;20480;-80
2023/02/15 15:59:24;;;;;;;31.30;28.60;;;10.10;99.90;;;;;;6243184;23;20407;-80
2023/02/15 16:01:53;;;;;;;33.20;29.93;;;10.00;99.90;;;;;;6243470;23;20745;-80
2023/02/15 16:04:26;;;;;;;30.00;27.40;;;9.90;99.90;;;;;;6243403;22;20474;-80
2023/02/15 16:06:54;;;;;;;30.17;26.77;;;9.80;99.90;;;;;;6242932;23;20800;-80
2023/02/15 16:09:23;;;;;;;31.43;27.37;;;9.70;99.90;;;;;;6242777;23;20419;-81
2023/02/15 16:11:53;;;;;;;32.10;28.80;;;9.60;99.90;;;;;;6242909;23;20911;-80
2023/02/15 16:14:26;;;;;;;33.53;30.27;;;9.50;99.90;;;;;;6242461;23;20982;-79
2023/02/15 16:16:57;;;;;;;34.00;30.50;;;9.40;99.90;;;;;;6242448;23;20872;-77
2023/02/15 16:19:27;;;;;;;30.47;27.43;;;9.30;99.90;;;;;;6242962;23;20393;-80
2023/02/15 16:21:55;;;;;;;31.87;28.53;;;9.30;99.90;;;;;;6242369;23;20904;-80
2023/02/15 16:24:39;;;;;;;33.97;30.63;;;9.20;99.90;;;;;;6243022;22;20443;-80
2023/02/15 16:27:25;;;;;;;30.00;27.20;;;9.00;99.90;;;;;;6242984;23;20632;-80
2023/02/15 16:29:52;;;;;;;31.43;28.27;;;8.90;99.90;;;;;;6242583;23;20938;-80
2023/02/15 16:32:22;;;;;;;35.00;31.20;;;8.70;99.90;;;;;;6242878;23;20408;-79
2023/02/15 16:34:57;;;;;;;41.93;32.83;;;8.60;99.90;;;;;;6242737;23;20408;-80
2023/02/15 16:37:27;;;;;;;39.93;33.50;;;8.60;99.90;;;;;;6242550;23;20754;-79
2023/02/15 16:39:57;;;;;;;36.10;32.30;;;8.40;99.90;;;;;;6242699;23;20499;-80
2023/02/15 16:42:24;;;;;;;38.73;34.67;;;8.30;99.90;;;;;;6242737;23;20879;-79
2023/02/15 16:45:00;;;;;;;36.83;33.53;;;8.10;99.90;;;;;;6242161;22;20414;-79
2023/02/15 16:47:31;;;;;;;36.80;32.93;;;8.00;99.90;;;;;;6242902;23;20400;-79
2023/02/15 16:50:02;;;;;;;33.53;30.50;;;8.00;99.90;;;;;;6242854;23;20393;-80
2023/02/15 16:52:30;;;;;;;33.97;30.60;;;7.90;99.90;;;;;;6242803;22;20393;-79
2023/02/15 16:55:03;;;;;;;32.83;29.77;;;7.80;99.90;;;;;;6242333;23;20417;-79
2023/02/15 16:57:33;;;;;;;34.90;31.63;;;7.70;99.90;;;;;;6242551;23;20399;-80
2023/02/15 17:00:04;;;;;;;33.80;30.57;;;7.50;99.90;;;;;;6242697;23;20714;-80
2023/02/15 17:02:34;;;;;;;36.20;32.60;;;7.40;99.90;;;;;;6243064;23;20397;-79
2023/02/15 17:05:08;;;;;;;31.80;28.93;;;7.30;99.90;;;;;;6242809;23;20415;-80
2023/02/15 17:07:39;;;;;;;36.07;32.67;;;7.30;99.90;;;;;;6242311;22;20463;-78
2023/02/15 17:10:28;;;;;;;36.30;31.30;;;7.30;99.90;;;;;;6242436;23;20732;-80
2023/02/15 17:12:57;;;;;;;37.77;33.80;;;7.20;99.90;;;;;;6241929;22;20435;-79
2023/02/15 17:15:32;;;;;;;36.27;32.57;;;7.10;99.90;;;;;;6241857;22;20404;-79
2023/02/15 17:18:05;;;;;;;38.57;34.80;;;7.00;99.90;;;;;;6243288;23;20391;-80
2023/02/15 17:20:32;;;;;;;34.67;31.37;;;6.90;99.90;;;;;;6242568;22;20443;-80
2023/02/15 17:22:59;;;;;;;35.50;31.87;;;6.90;99.90;;;;;;6242729;22;20409;-79
2023/02/15 17:25:36;;;;;;;43.43;34.30;;;6.80;99.90;;;;;;6241867;23;20884;-80
2023/02/15 17:28:02;;;;;;;35.77;32.10;;;6.70;99.90;;;;;;6242476;23;20724;-80
2023/02/15 17:30:31;;;;;;;39.20;35.47;;;6.60;99.90;;;;;;6242476;23;20411;-79
2023/02/15 17:33:02;;;;;;;38.27;34.50;;;6.50;99.90;;;;;;6242169;23;20411;-80
2023/02/15 17:35:30;;;;;;;44.47;34.63;;;6.50;99.90;;;;;;6242330;23;20447;-78
2023/02/15 17:38:15;;;;;;;36.40;32.47;;;6.40;99.90;;;;;;6242689;23;20743;-78
2023/02/15 17:40:42;;;;;;;38.80;34.67;;;6.20;99.90;;;;;;6242233;23;20389;-79
2023/02/15 17:43:08;;;;;;;43.53;37.10;;;6.20;99.90;;;;;;6242062;23;20713;-80
2023/02/15 17:45:39;;;;;;;39.77;35.73;;;6.00;99.90;;;;;;6241864;23;20416;-79
2023/02/15 17:48:15;;;;;;;40.03;35.87;;;6.00;99.90;;;;;;6241846;23;20594;-77
2023/02/15 17:50:42;;;;;;;40.73;36.73;;;5.80;99.90;;;;;;6241769;23;20403;-78
2023/02/15 17:53:09;;;;;;;36.10;32.57;;;5.70;99.90;;;;;;6241835;23;20440;-80
2023/02/15 17:55:37;;;;;;;38.40;34.50;;;5.50;99.90;;;;;;6242075;23;20412;-80
2023/02/15 17:58:06;;;;;;;38.27;34.17;;;5.20;99.90;;;;;;6241943;22;20440;-80
